sensor_id;sensor_type;location;lat;lon;timestamp;pressure;altitude;pressure_sealevel;temperature;humidity
49072;BME280;52656;52.610;10.236;2023-08-08T00:00:02;100665.28;;;11.01;97.48
49072;BME280;52656;52.610;10.236;2023-08-08T00:02:29;100663.69;;;10.97;97.35
49072;BME280;52656;52.610;10.236;2023-08-08T00:04:54;100662.28;;;10.88;99.11
49072;BME280;52656;52.610;10.236;2023-08-08T00:07:19;100659.06;;;10.82;100.00
49072;BME280;52656;52.610;10.236;2023-08-08T00:09:45;100655.88;;;10.94;99.78
49072;BME280;52656;52.610;10.236;2023-08-08T00:12:11;100661.31;;;10.91;100.00
49072;BME280;52656;52.610;10.236;2023-08-08T00:14:36;100656.69;;;10.96;99.20
49072;BME280;52656;52.610;10.236;2023-08-08T00:17:01;100656.78;;;10.93;100.00
49072;BME280;52656;52.610;10.236;2023-08-08T00:19:27;100654.69;;;11.01;98.60
49072;BME280;52656;52.610;10.236;2023-08-08T00:21:52;100644.88;;;11.03;99.94
49072;BME280;52656;52.610;10.236;2023-08-08T00:24:17;100651.97;;;11.03;99.74
49072;BME280;52656;52.610;10.236;2023-08-08T00:26:42;100646.34;;;10.90;100.00
49072;BME280;52656;52.610;10.236;2023-08-08T00:29:08;100653.56;;;10.86;100.00
49072;BME280;52656;52.610;10.236;2023-08-08T00:31:33;100648.38;;;10.83;100.00
49072;BME280;52656;52.610;10.236;2023-08-08T00:33:58;100649.00;;;10.90;100.00
49072;BME280;52656;52.610;10.236;2023-08-08T00:36:23;100641.63;;;10.97;100.00
49072;BME280;52656;52.610;10.236;2023-08-08T00:38:49;100639.06;;;10.95;100.00
49072;BME280;52656;52.610;10.236;2023-08-08T00:41:15;100640.91;;;10.93;100.00
49072;BME280;52656;52.610;10.236;2023-08-08T00:43:40;100630.44;;;10.90;100.00
49072;BME280;52656;52.610;10.236;2023-08-08T00:46:05;100627.25;;;11.02;100.00
49072;BME280;52656;52.610;10.236;2023-08-08T00:48:31;100627.41;;;10.99;100.00
49072;BME280;52656;52.610;10.236;2023-08-08T00:50:57;100625.72;;;10.97;100.00
49072;BME280;52656;52.610;10.236;2023-08-08T00:53:22;100618.91;;;10.91;100.00
49072;BME280;52656;52.610;10.236;2023-08-08T00:55:51;100621.03;;;10.83;100.00
49072;BME280;52656;52.610;10.236;2023-08-08T00:58:16;100619.69;;;10.93;100.00
49072;BME280;52656;52.610;10.236;2023-08-08T01:00:42;100614.06;;;11.01;100.00
49072;BME280;52656;52.610;10.236;2023-08-08T01:03:07;100615.78;;;11.02;100.00
49072;BME280;52656;52.610;10.236;2023-08-08T01:05:43;100613.22;;;11.00;100.00
49072;BME280;52656;52.610;10.236;2023-08-08T01:08:09;100600.28;;;10.92;100.00
49072;BME280;52656;52.610;10.236;2023-08-08T01:10:38;100593.34;;;10.90;100.00
49072;BME280;52656;52.610;10.236;2023-08-08T01:13:08;100592.94;;;10.99;100.00
49072;BME280;52656;52.610;10.236;2023-08-08T01:15:36;100599.97;;;11.00;100.00
49072;BME280;52656;52.610;10.236;2023-08-08T01:18:06;100598.44;;;10.94;100.00
49072;BME280;52656;52.610;10.236;2023-08-08T01:20:32;100596.25;;;11.04;100.00
49072;BME280;52656;52.610;10.236;2023-08-08T01:25:37;100591.84;;;11.03;100.00
49072;BME280;52656;52.610;10.236;2023-08-08T01:28:03;100579.28;;;11.08;100.00
49072;BME280;52656;52.610;10.236;2023-08-08T01:30:30;100580.34;;;11.04;100.00
49072;BME280;52656;52.610;10.236;2023-08-08T01:32:55;100580.28;;;11.06;100.00
49072;BME280;52656;52.610;10.236;2023-08-08T01:35:21;100584.50;;;11.10;100.00
49072;BME280;52656;52.610;10.236;2023-08-08T01:37:50;100587.91;;;11.13;100.00
49072;BME280;52656;52.610;10.236;2023-08-08T01:40:18;100582.19;;;11.02;100.00
49072;BME280;52656;52.610;10.236;2023-08-08T01:42:46;100583.84;;;11.05;100.00
49072;BME280;52656;52.610;10.236;2023-08-08T01:45:13;100592.00;;;11.00;100.00
49072;BME280;52656;52.610;10.236;2023-08-08T01:47:39;100584.31;;;10.94;100.00
49072;BME280;52656;52.610;10.236;2023-08-08T01:50:05;100581.28;;;10.83;100.00
49072;BME280;52656;52.610;10.236;2023-08-08T01:52:30;100584.88;;;10.82;100.00
49072;BME280;52656;52.610;10.236;2023-08-08T01:54:56;100577.50;;;10.88;100.00
49072;BME280;52656;52.610;10.236;2023-08-08T01:57:21;100575.56;;;10.72;100.00
49072;BME280;52656;52.610;10.236;2023-08-08T01:59:47;100575.91;;;10.84;100.00
49072;BME280;52656;52.610;10.236;2023-08-08T02:02:13;100581.19;;;10.84;100.00
49072;BME280;52656;52.610;10.236;2023-08-08T02:04:38;100574.50;;;10.76;100.00
49072;BME280;52656;52.610;10.236;2023-08-08T02:07:04;100578.75;;;10.80;100.00
49072;BME280;52656;52.610;10.236;2023-08-08T02:09:29;100577.16;;;10.76;100.00
49072;BME280;52656;52.610;10.236;2023-08-08T02:11:54;100569.16;;;10.77;100.00
49072;BME280;52656;52.610;10.236;2023-08-08T02:14:20;100562.06;;;10.78;100.00
49072;BME280;52656;52.610;10.236;2023-08-08T02:16:45;100563.88;;;10.77;100.00
49072;BME280;52656;52.610;10.236;2023-08-08T02:19:10;100558.69;;;10.74;100.00
49072;BME280;52656;52.610;10.236;2023-08-08T02:21:36;100564.06;;;10.73;100.00
49072;BME280;52656;52.610;10.236;2023-08-08T02:24:01;100563.91;;;10.76;100.00
49072;BME280;52656;52.610;10.236;2023-08-08T02:26:26;100568.31;;;10.77;100.00
49072;BME280;52656;52.610;10.236;2023-08-08T02:28:52;100566.63;;;10.74;100.00
49072;BME280;52656;52.610;10.236;2023-08-08T02:31:17;100564.84;;;10.75;100.00
49072;BME280;52656;52.610;10.236;2023-08-08T02:33:48;100562.00;;;10.79;100.00
49072;BME280;52656;52.610;10.236;2023-08-08T02:36:13;100552.06;;;10.84;100.00
49072;BME280;52656;52.610;10.236;2023-08-08T02:38:38;100558.50;;;10.79;100.00
49072;BME280;52656;52.610;10.236;2023-08-08T02:41:04;100556.63;;;10.81;100.00
49072;BME280;52656;52.610;10.236;2023-08-08T02:43:29;100561.34;;;10.74;100.00
49072;BME280;52656;52.610;10.236;2023-08-08T02:45:54;100563.59;;;10.83;100.00
49072;BME280;52656;52.610;10.236;2023-08-08T02:48:20;100566.38;;;10.80;100.00
49072;BME280;52656;52.610;10.236;2023-08-08T02:50:45;100560.88;;;10.85;100.00
49072;BME280;52656;52.610;10.236;2023-08-08T02:53:10;100562.59;;;10.86;100.00
49072;BME280;52656;52.610;10.236;2023-08-08T02:55:36;100563.47;;;10.86;100.00
49072;BME280;52656;52.610;10.236;2023-08-08T02:58:02;100560.94;;;10.83;100.00
49072;BME280;52656;52.610;10.236;2023-08-08T03:00:27;100560.47;;;10.94;100.00
49072;BME280;52656;52.610;10.236;2023-08-08T03:02:52;100553.25;;;10.98;100.00
49072;BME280;52656;52.610;10.236;2023-08-08T03:05:17;100557.69;;;10.97;100.00
49072;BME280;52656;52.610;10.236;2023-08-08T03:07:43;100544.31;;;11.00;100.00
49072;BME280;52656;52.610;10.236;2023-08-08T03:10:08;100538.84;;;11.03;100.00
49072;BME280;52656;52.610;10.236;2023-08-08T03:12:34;100536.41;;;10.99;100.00
49072;BME280;52656;52.610;10.236;2023-08-08T03:14:59;100542.09;;;11.10;100.00
49072;BME280;52656;52.610;10.236;2023-08-08T03:17:24;100543.59;;;11.15;100.00
49072;BME280;52656;52.610;10.236;2023-08-08T03:19:50;100536.97;;;11.26;100.00
49072;BME280;52656;52.610;10.236;2023-08-08T03:22:15;100533.25;;;11.30;100.00
49072;BME280;52656;52.610;10.236;2023-08-08T03:24:40;100545.09;;;11.41;100.00
49072;BME280;52656;52.610;10.236;2023-08-08T03:27:05;100529.81;;;11.28;100.00
49072;BME280;52656;52.610;10.236;2023-08-08T03:29:31;100539.81;;;11.41;100.00
49072;BME280;52656;52.610;10.236;2023-08-08T03:31:56;100536.00;;;11.47;100.00
49072;BME280;52656;52.610;10.236;2023-08-08T03:34:22;100529.94;;;11.62;100.00
49072;BME280;52656;52.610;10.236;2023-08-08T03:36:47;100528.81;;;11.68;100.00
49072;BME280;52656;52.610;10.236;2023-08-08T03:39:12;100521.31;;;11.59;100.00
49072;BME280;52656;52.610;10.236;2023-08-08T03:41:37;100518.69;;;11.57;100.00
49072;BME280;52656;52.610;10.236;2023-08-08T03:44:03;100520.88;;;11.68;100.00
49072;BME280;52656;52.610;10.236;2023-08-08T03:46:28;100524.22;;;11.71;100.00
49072;BME280;52656;52.610;10.236;2023-08-08T03:48:54;100516.41;;;11.68;100.00
49072;BME280;52656;52.610;10.236;2023-08-08T03:51:19;100521.34;;;11.76;100.00
49072;BME280;52656;52.610;10.236;2023-08-08T03:53:44;100525.34;;;11.85;100.00
49072;BME280;52656;52.610;10.236;2023-08-08T03:56:10;100526.00;;;11.90;100.00
49072;BME280;52656;52.610;10.236;2023-08-08T03:58:35;100521.50;;;11.73;100.00
49072;BME280;52656;52.610;10.236;2023-08-08T04:01:00;100519.97;;;11.86;100.00
49072;BME280;52656;52.610;10.236;2023-08-08T04:03:25;100518.91;;;11.90;100.00
49072;BME280;52656;52.610;10.236;2023-08-08T04:05:51;100515.03;;;11.79;100.00
49072;BME280;52656;52.610;10.236;2023-08-08T04:08:16;100514.81;;;11.83;100.00
49072;BME280;52656;52.610;10.236;2023-08-08T04:10:42;100512.06;;;12.04;100.00
49072;BME280;52656;52.610;10.236;2023-08-08T04:13:08;100508.03;;;12.12;100.00
49072;BME280;52656;52.610;10.236;2023-08-08T04:15:33;100513.06;;;12.18;100.00
49072;BME280;52656;52.610;10.236;2023-08-08T04:17:58;100511.19;;;12.20;100.00
49072;BME280;52656;52.610;10.236;2023-08-08T04:20:24;100513.34;;;12.12;100.00
49072;BME280;52656;52.610;10.236;2023-08-08T04:22:49;100506.28;;;12.13;100.00
49072;BME280;52656;52.610;10.236;2023-08-08T04:25:14;100507.09;;;11.96;100.00
49072;BME280;52656;52.610;10.236;2023-08-08T04:27:40;100505.56;;;12.09;100.00
49072;BME280;52656;52.610;10.236;2023-08-08T04:30:06;100510.56;;;12.15;100.00
49072;BME280;52656;52.610;10.236;2023-08-08T04:32:31;100493.06;;;12.11;100.00
49072;BME280;52656;52.610;10.236;2023-08-08T04:34:57;100505.09;;;12.18;100.00
49072;BME280;52656;52.610;10.236;2023-08-08T04:37:22;100494.03;;;12.28;100.00
49072;BME280;52656;52.610;10.236;2023-08-08T04:39:47;100489.66;;;12.27;100.00
49072;BME280;52656;52.610;10.236;2023-08-08T04:42:12;100496.91;;;12.23;100.00
49072;BME280;52656;52.610;10.236;2023-08-08T04:44:38;100487.53;;;12.33;100.00
49072;BME280;52656;52.610;10.236;2023-08-08T04:47:04;100482.13;;;12.35;100.00
49072;BME280;52656;52.610;10.236;2023-08-08T04:49:29;100485.03;;;12.30;100.00
49072;BME280;52656;52.610;10.236;2023-08-08T04:51:54;100475.81;;;12.37;100.00
49072;BME280;52656;52.610;10.236;2023-08-08T04:54:19;100483.63;;;12.40;100.00
49072;BME280;52656;52.610;10.236;2023-08-08T04:56:45;100481.59;;;12.45;100.00
49072;BME280;52656;52.610;10.236;2023-08-08T04:59:10;100490.81;;;12.38;100.00
49072;BME280;52656;52.610;10.236;2023-08-08T05:01:35;100486.38;;;12.56;100.00
49072;BME280;52656;52.610;10.236;2023-08-08T05:04:01;100484.88;;;12.68;100.00
49072;BME280;52656;52.610;10.236;2023-08-08T05:06:26;100480.19;;;12.73;100.00
49072;BME280;52656;52.610;10.236;2023-08-08T05:08:52;100483.06;;;12.86;100.00
49072;BME280;52656;52.610;10.236;2023-08-08T05:11:18;100480.75;;;12.95;100.00
49072;BME280;52656;52.610;10.236;2023-08-08T05:13:43;100483.63;;;13.08;100.00
49072;BME280;52656;52.610;10.236;2023-08-08T05:16:08;100477.41;;;13.08;100.00
49072;BME280;52656;52.610;10.236;2023-08-08T05:18:34;100479.66;;;13.15;100.00
49072;BME280;52656;52.610;10.236;2023-08-08T05:20:59;100476.66;;;13.53;100.00
49072;BME280;52656;52.610;10.236;2023-08-08T05:23:24;100476.34;;;13.75;100.00
49072;BME280;52656;52.610;10.236;2023-08-08T05:25:49;100482.25;;;13.96;99.41
49072;BME280;52656;52.610;10.236;2023-08-08T05:28:15;100485.00;;;14.24;97.84
49072;BME280;52656;52.610;10.236;2023-08-08T05:30:40;100472.94;;;14.33;96.84
49072;BME280;52656;52.610;10.236;2023-08-08T05:33:05;100478.28;;;14.33;96.33
49072;BME280;52656;52.610;10.236;2023-08-08T05:35:30;100473.63;;;14.81;93.28
49072;BME280;52656;52.610;10.236;2023-08-08T05:37:56;100473.97;;;14.75;93.19
49072;BME280;52656;52.610;10.236;2023-08-08T05:40:21;100473.63;;;14.81;92.67
49072;BME280;52656;52.610;10.236;2023-08-08T05:42:46;100474.19;;;15.15;89.44
49072;BME280;52656;52.610;10.236;2023-08-08T05:45:11;100471.88;;;15.23;89.24
49072;BME280;52656;52.610;10.236;2023-08-08T05:47:37;100475.69;;;15.33;87.84
49072;BME280;52656;52.610;10.236;2023-08-08T05:50:02;100485.75;;;15.42;87.11
49072;BME280;52656;52.610;10.236;2023-08-08T05:52:27;100484.38;;;15.22;87.15
49072;BME280;52656;52.610;10.236;2023-08-08T05:54:52;100489.19;;;15.30;86.34
49072;BME280;52656;52.610;10.236;2023-08-08T05:57:18;100485.94;;;15.54;85.40
49072;BME280;52656;52.610;10.236;2023-08-08T05:59:43;100479.59;;;15.69;84.34
49072;BME280;52656;52.610;10.236;2023-08-08T06:02:10;100481.75;;;15.91;83.19
49072;BME280;52656;52.610;10.236;2023-08-08T06:04:35;100487.16;;;18.64;69.91
49072;BME280;52656;52.610;10.236;2023-08-08T06:07:00;100474.69;;;21.62;53.94
49072;BME280;52656;52.610;10.236;2023-08-08T06:09:25;100462.84;;;21.84;51.55
49072;BME280;52656;52.610;10.236;2023-08-08T06:11:51;100477.91;;;20.12;58.51
49072;BME280;52656;52.610;10.236;2023-08-08T06:14:16;100471.69;;;22.44;50.17
49072;BME280;52656;52.610;10.236;2023-08-08T06:16:42;100451.84;;;25.40;45.32
49072;BME280;52656;52.610;10.236;2023-08-08T06:19:08;100450.88;;;24.37;44.83
49072;BME280;52656;52.610;10.236;2023-08-08T06:21:33;100461.81;;;24.71;45.34
49072;BME280;52656;52.610;10.236;2023-08-08T06:23:59;100464.59;;;24.18;44.54
49072;BME280;52656;52.610;10.236;2023-08-08T06:26:24;100460.13;;;26.05;40.81
49072;BME280;52656;52.610;10.236;2023-08-08T06:28:49;100456.72;;;27.72;38.39
49072;BME280;52656;52.610;10.236;2023-08-08T06:31:17;100464.03;;;26.11;39.53
49072;BME280;52656;52.610;10.236;2023-08-08T06:33:42;100447.22;;;26.16;40.84
49072;BME280;52656;52.610;10.236;2023-08-08T06:36:08;100452.81;;;25.31;42.69
49072;BME280;52656;52.610;10.236;2023-08-08T06:38:33;100458.91;;;24.99;44.23
49072;BME280;52656;52.610;10.236;2023-08-08T06:41:02;100463.78;;;27.11;39.85
49072;BME280;52656;52.610;10.236;2023-08-08T06:43:28;100446.06;;;27.54;37.75
49072;BME280;52656;52.610;10.236;2023-08-08T06:45:53;100457.44;;;26.46;40.29
49072;BME280;52656;52.610;10.236;2023-08-08T06:48:18;100460.38;;;25.53;42.12
49072;BME280;52656;52.610;10.236;2023-08-08T06:50:44;100462.53;;;23.21;46.09
49072;BME280;52656;52.610;10.236;2023-08-08T06:53:09;100462.03;;;22.88;47.42
49072;BME280;52656;52.610;10.236;2023-08-08T06:55:35;100460.16;;;23.63;45.31
49072;BME280;52656;52.610;10.236;2023-08-08T06:58:00;100451.47;;;24.75;43.19
49072;BME280;52656;52.610;10.236;2023-08-08T07:00:25;100463.97;;;22.59;47.92
49072;BME280;52656;52.610;10.236;2023-08-08T07:02:52;100458.13;;;22.73;48.27
49072;BME280;52656;52.610;10.236;2023-08-08T07:05:18;100464.56;;;22.14;48.71
49072;BME280;52656;52.610;10.236;2023-08-08T07:07:43;100464.69;;;21.23;51.77
49072;BME280;52656;52.610;10.236;2023-08-08T07:10:10;100464.97;;;20.69;52.86
49072;BME280;52656;52.610;10.236;2023-08-08T07:12:36;100453.84;;;21.04;52.44
49072;BME280;52656;52.610;10.236;2023-08-08T07:15:02;100458.47;;;19.97;55.97
49072;BME280;52656;52.610;10.236;2023-08-08T07:17:28;100466.91;;;19.72;56.74
49072;BME280;52656;52.610;10.236;2023-08-08T07:19:53;100456.69;;;19.55;58.10
49072;BME280;52656;52.610;10.236;2023-08-08T07:22:18;100473.91;;;19.07;59.95
49072;BME280;52656;52.610;10.236;2023-08-08T07:24:44;100456.22;;;19.82;57.78
49072;BME280;52656;52.610;10.236;2023-08-08T07:27:09;100446.47;;;19.81;56.61
49072;BME280;52656;52.610;10.236;2023-08-08T07:29:34;100449.88;;;19.06;59.59
49072;BME280;52656;52.610;10.236;2023-08-08T07:32:03;100441.16;;;18.57;61.96
49072;BME280;52656;52.610;10.236;2023-08-08T07:34:29;100436.69;;;18.22;61.54
49072;BME280;52656;52.610;10.236;2023-08-08T07:36:54;100438.75;;;18.19;63.14
49072;BME280;52656;52.610;10.236;2023-08-08T07:39:21;100433.41;;;18.19;62.97
49072;BME280;52656;52.610;10.236;2023-08-08T07:41:46;100439.03;;;17.92;64.07
49072;BME280;52656;52.610;10.236;2023-08-08T07:44:12;100437.97;;;18.41;62.36
49072;BME280;52656;52.610;10.236;2023-08-08T07:46:37;100441.34;;;18.32;63.33
49072;BME280;52656;52.610;10.236;2023-08-08T07:49:02;100446.13;;;17.80;65.85
49072;BME280;52656;52.610;10.236;2023-08-08T07:51:29;100443.91;;;17.98;66.44
49072;BME280;52656;52.610;10.236;2023-08-08T07:53:55;100433.53;;;17.93;67.32
49072;BME280;52656;52.610;10.236;2023-08-08T07:56:20;100442.69;;;17.67;68.28
49072;BME280;52656;52.610;10.236;2023-08-08T07:58:45;100441.31;;;18.20;65.71
49072;BME280;52656;52.610;10.236;2023-08-08T08:01:11;100427.06;;;19.98;58.46
49072;BME280;52656;52.610;10.236;2023-08-08T08:03:37;100429.28;;;21.57;52.32
49072;BME280;52656;52.610;10.236;2023-08-08T08:06:02;100426.53;;;21.18;52.79
49072;BME280;52656;52.610;10.236;2023-08-08T08:08:27;100419.63;;;23.08;48.00
49072;BME280;52656;52.610;10.236;2023-08-08T08:10:53;100410.91;;;23.14;46.89
49072;BME280;52656;52.610;10.236;2023-08-08T08:13:18;100411.00;;;22.95;46.60
49072;BME280;52656;52.610;10.236;2023-08-08T08:15:44;100403.22;;;22.82;44.89
49072;BME280;52656;52.610;10.236;2023-08-08T08:18:09;100409.31;;;23.67;44.86
49072;BME280;52656;52.610;10.236;2023-08-08T08:20:36;100417.28;;;22.19;47.55
49072;BME280;52656;52.610;10.236;2023-08-08T08:23:01;100407.53;;;21.89;47.43
49072;BME280;52656;52.610;10.236;2023-08-08T08:25:27;100408.25;;;21.22;48.58
49072;BME280;52656;52.610;10.236;2023-08-08T08:27:52;100408.72;;;21.46;49.13
49072;BME280;52656;52.610;10.236;2023-08-08T08:30:17;100403.25;;;21.96;47.90
49072;BME280;52656;52.610;10.236;2023-08-08T08:32:44;100404.25;;;21.86;48.52
49072;BME280;52656;52.610;10.236;2023-08-08T08:35:09;100409.50;;;20.77;50.03
49072;BME280;52656;52.610;10.236;2023-08-08T08:37:35;100419.63;;;20.43;51.84
49072;BME280;52656;52.610;10.236;2023-08-08T08:40:00;100409.34;;;21.10;49.64
49072;BME280;52656;52.610;10.236;2023-08-08T08:42:26;100409.94;;;21.13;49.70
49072;BME280;52656;52.610;10.236;2023-08-08T08:44:57;100411.84;;;21.42;49.66
49072;BME280;52656;52.610;10.236;2023-08-08T08:47:23;100404.50;;;20.94;49.83
49072;BME280;52656;52.610;10.236;2023-08-08T08:49:53;100390.28;;;21.51;47.89
49072;BME280;52656;52.610;10.236;2023-08-08T08:52:19;100409.94;;;21.13;48.90
49072;BME280;52656;52.610;10.236;2023-08-08T08:54:45;100391.91;;;21.04;49.76
49072;BME280;52656;52.610;10.236;2023-08-08T08:57:11;100390.88;;;21.45;49.19
49072;BME280;52656;52.610;10.236;2023-08-08T08:59:37;100384.47;;;21.46;47.85
49072;BME280;52656;52.610;10.236;2023-08-08T09:02:02;100384.47;;;21.56;48.31
49072;BME280;52656;52.610;10.236;2023-08-08T09:04:28;100369.25;;;23.80;43.34
49072;BME280;52656;52.610;10.236;2023-08-08T09:06:55;100380.78;;;22.82;46.41
49072;BME280;52656;52.610;10.236;2023-08-08T09:09:21;100390.44;;;22.37;46.76
49072;BME280;52656;52.610;10.236;2023-08-08T09:11:49;100382.75;;;22.42;46.07
49072;BME280;52656;52.610;10.236;2023-08-08T09:14:16;100384.09;;;23.30;44.78
49072;BME280;52656;52.610;10.236;2023-08-08T09:16:43;100395.16;;;23.55;42.92
49072;BME280;52656;52.610;10.236;2023-08-08T09:19:08;100394.00;;;23.40;43.50
49072;BME280;52656;52.610;10.236;2023-08-08T09:21:33;100393.78;;;25.09;40.87
49072;BME280;52656;52.610;10.236;2023-08-08T09:23:58;100392.97;;;26.88;38.58
49072;BME280;52656;52.610;10.236;2023-08-08T09:26:24;100392.81;;;25.34;40.41
49072;BME280;52656;52.610;10.236;2023-08-08T09:28:50;100375.00;;;24.03;41.99
49072;BME280;52656;52.610;10.236;2023-08-08T09:31:16;100384.16;;;23.21;43.73
49072;BME280;52656;52.610;10.236;2023-08-08T09:33:42;100382.25;;;23.03;44.06
49072;BME280;52656;52.610;10.236;2023-08-08T09:36:16;100385.91;;;23.02;43.48
49072;BME280;52656;52.610;10.236;2023-08-08T09:38:41;100386.97;;;23.47;42.50
49072;BME280;52656;52.610;10.236;2023-08-08T09:41:06;100380.81;;;23.09;42.53
49072;BME280;52656;52.610;10.236;2023-08-08T09:43:32;100381.84;;;23.26;42.17
49072;BME280;52656;52.610;10.236;2023-08-08T09:45:57;100379.19;;;23.79;41.55
49072;BME280;52656;52.610;10.236;2023-08-08T09:48:29;100383.47;;;24.78;39.56
49072;BME280;52656;52.610;10.236;2023-08-08T09:50:58;100379.47;;;24.90;39.36
49072;BME280;52656;52.610;10.236;2023-08-08T09:53:25;100383.28;;;25.14;38.98
49072;BME280;52656;52.610;10.236;2023-08-08T09:55:51;100375.16;;;24.45;39.72
49072;BME280;52656;52.610;10.236;2023-08-08T09:58:17;100371.72;;;23.00;41.36
49072;BME280;52656;52.610;10.236;2023-08-08T10:00:42;100377.91;;;22.46;43.53
49072;BME280;52656;52.610;10.236;2023-08-08T10:03:07;100392.03;;;21.02;46.83
49072;BME280;52656;52.610;10.236;2023-08-08T10:05:33;100391.28;;;21.31;46.99
49072;BME280;52656;52.610;10.236;2023-08-08T10:07:58;100407.22;;;21.73;45.78
49072;BME280;52656;52.610;10.236;2023-08-08T10:10:24;100396.69;;;20.91;47.34
49072;BME280;52656;52.610;10.236;2023-08-08T10:12:49;100418.44;;;20.57;48.96
49072;BME280;52656;52.610;10.236;2023-08-08T10:15:15;100406.88;;;20.66;48.88
49072;BME280;52656;52.610;10.236;2023-08-08T10:17:41;100406.22;;;20.11;48.79
49072;BME280;52656;52.610;10.236;2023-08-08T10:20:09;100391.31;;;20.18;49.50
49072;BME280;52656;52.610;10.236;2023-08-08T10:22:42;100396.44;;;21.92;45.81
49072;BME280;52656;52.610;10.236;2023-08-08T10:25:07;100390.91;;;23.70;41.79
49072;BME280;52656;52.610;10.236;2023-08-08T10:27:35;100384.47;;;24.77;40.61
49072;BME280;52656;52.610;10.236;2023-08-08T10:30:04;100382.78;;;24.84;40.38
49072;BME280;52656;52.610;10.236;2023-08-08T10:32:38;100364.13;;;23.77;41.76
49072;BME280;52656;52.610;10.236;2023-08-08T10:35:05;100382.44;;;24.45;40.91
49072;BME280;52656;52.610;10.236;2023-08-08T10:37:31;100372.03;;;23.25;42.85
49072;BME280;52656;52.610;10.236;2023-08-08T10:40:01;100383.28;;;24.27;41.33
49072;BME280;52656;52.610;10.236;2023-08-08T10:42:31;100374.31;;;24.45;40.73
49072;BME280;52656;52.610;10.236;2023-08-08T10:44:58;100368.53;;;24.74;39.79
49072;BME280;52656;52.610;10.236;2023-08-08T10:47:34;100364.03;;;24.30;41.29
49072;BME280;52656;52.610;10.236;2023-08-08T10:50:11;100360.94;;;23.46;42.09
49072;BME280;52656;52.610;10.236;2023-08-08T10:58:02;100364.34;;;23.84;41.12
49072;BME280;52656;52.610;10.236;2023-08-08T11:00:30;100364.63;;;24.16;41.60
49072;BME280;52656;52.610;10.236;2023-08-08T11:02:57;100375.16;;;24.01;41.04
49072;BME280;52656;52.610;10.236;2023-08-08T11:05:23;100364.88;;;24.05;41.60
49072;BME280;52656;52.610;10.236;2023-08-08T11:07:49;100362.16;;;23.51;42.45
49072;BME280;52656;52.610;10.236;2023-08-08T11:10:15;100354.31;;;23.40;42.91
49072;BME280;52656;52.610;10.236;2023-08-08T11:12:41;100355.06;;;23.05;42.87
49072;BME280;52656;52.610;10.236;2023-08-08T11:15:07;100357.84;;;22.58;43.02
49072;BME280;52656;52.610;10.236;2023-08-08T11:17:32;100358.59;;;23.05;42.50
49072;BME280;52656;52.610;10.236;2023-08-08T11:19:57;100364.69;;;23.17;42.52
49072;BME280;52656;52.610;10.236;2023-08-08T11:22:23;100364.78;;;23.61;41.69
49072;BME280;52656;52.610;10.236;2023-08-08T11:24:49;100346.78;;;23.70;41.52
49072;BME280;52656;52.610;10.236;2023-08-08T11:27:15;100343.81;;;22.82;43.54
49072;BME280;52656;52.610;10.236;2023-08-08T11:29:49;100334.84;;;23.54;41.83
49072;BME280;52656;52.610;10.236;2023-08-08T11:32:14;100335.91;;;23.26;41.41
49072;BME280;52656;52.610;10.236;2023-08-08T11:34:39;100348.22;;;22.83;42.36
49072;BME280;52656;52.610;10.236;2023-08-08T11:37:05;100349.16;;;22.64;43.86
49072;BME280;52656;52.610;10.236;2023-08-08T11:39:31;100351.28;;;22.14;45.01
49072;BME280;52656;52.610;10.236;2023-08-08T11:41:57;100349.34;;;22.53;44.12
49072;BME280;52656;52.610;10.236;2023-08-08T11:44:22;100338.97;;;22.58;43.16
49072;BME280;52656;52.610;10.236;2023-08-08T11:46:48;100343.75;;;22.92;43.13
49072;BME280;52656;52.610;10.236;2023-08-08T11:49:15;100349.97;;;22.37;42.90
49072;BME280;52656;52.610;10.236;2023-08-08T11:51:43;100343.25;;;23.06;41.56
49072;BME280;52656;52.610;10.236;2023-08-08T11:54:08;100337.44;;;23.28;41.29
49072;BME280;52656;52.610;10.236;2023-08-08T11:56:34;100334.91;;;23.45;40.96
49072;BME280;52656;52.610;10.236;2023-08-08T11:59:01;100333.47;;;22.77;41.63
49072;BME280;52656;52.610;10.236;2023-08-08T12:01:27;100335.75;;;22.35;42.88
49072;BME280;52656;52.610;10.236;2023-08-08T12:03:54;100334.59;;;22.75;42.83
49072;BME280;52656;52.610;10.236;2023-08-08T12:06:19;100334.97;;;22.05;43.38
49072;BME280;52656;52.610;10.236;2023-08-08T12:08:46;100343.34;;;22.02;42.97
49072;BME280;52656;52.610;10.236;2023-08-08T12:11:13;100341.41;;;21.75;41.91
49072;BME280;52656;52.610;10.236;2023-08-08T12:13:43;100347.06;;;21.92;41.90
49072;BME280;52656;52.610;10.236;2023-08-08T12:16:10;100313.75;;;22.20;41.09
49072;BME280;52656;52.610;10.236;2023-08-08T12:18:37;100338.25;;;21.51;42.30
49072;BME280;52656;52.610;10.236;2023-08-08T12:21:04;100351.88;;;21.88;42.69
49072;BME280;52656;52.610;10.236;2023-08-08T12:23:30;100353.31;;;20.33;45.97
49072;BME280;52656;52.610;10.236;2023-08-08T12:25:57;100350.38;;;21.07;46.29
49072;BME280;52656;52.610;10.236;2023-08-08T12:28:22;100364.94;;;20.64;47.70
49072;BME280;52656;52.610;10.236;2023-08-08T12:30:48;100354.00;;;21.94;46.15
49072;BME280;52656;52.610;10.236;2023-08-08T12:33:13;100349.28;;;21.28;44.33
49072;BME280;52656;52.610;10.236;2023-08-08T12:35:38;100345.22;;;21.44;43.22